Terminal Aerodrome Forecast
Issued by NWS

Current Version | Previous Version | Text Only | Print | Product List | Glossary On
Versions: 1 2 3 4 5 6 7 8 9 10 11 12 13 14 15 16 17
000
FTUS42 KTAE 200500
TAFVLD
TAF
KVLD 200523Z 2006/2106 00000KT P6SM SKC
     FM201000 00000KT 6SM BR SKC
     FM201400 12004KT P6SM SCT030
     FM201900 18004KT P6SM SCT040 SCT250=

USA.gov is the U.S. government's official web portal to all federal, state and local government web resources and services.